createdAt,value
2018-09-13T00:01:57.750Z,97538.00
2018-09-13T00:04:38.454Z,97537.00
2018-09-13T00:07:19.089Z,97538.00
2018-09-13T00:09:59.650Z,97536.00
2018-09-13T00:12:40.386Z,97528.00
2018-09-13T00:15:21.905Z,97533.00
2018-09-13T00:18:03.495Z,97536.00
2018-09-13T00:20:44.110Z,97541.00
2018-09-13T00:23:25.968Z,97541.00
2018-09-13T00:26:06.451Z,97533.00
2018-09-13T00:28:47.055Z,97534.00
2018-09-13T00:31:27.751Z,97541.00
2018-09-13T00:34:08.446Z,97534.00
2018-09-13T00:36:49.022Z,97532.00
2018-09-13T00:39:29.616Z,97538.00
2018-09-13T00:42:10.270Z,97537.00
2018-09-13T00:44:52.859Z,97536.00
2018-09-13T00:47:33.489Z,97529.00
2018-09-13T00:50:15.136Z,97530.00
2018-09-13T00:52:57.013Z,97511.00
2018-09-13T00:55:37.689Z,97514.00
2018-09-13T00:58:18.217Z,97512.00
2018-09-13T01:07:29.679Z,97499.00
2018-09-13T01:10:10.222Z,97520.00
2018-09-13T01:12:51.844Z,97503.00
2018-09-13T01:15:32.281Z,97495.00
2018-09-13T01:18:12.840Z,97500.00
2018-09-13T01:20:55.089Z,97504.00
2018-09-13T01:23:35.544Z,97502.00
2018-09-13T01:26:17.090Z,97520.00
2018-09-13T01:28:58.802Z,97515.00
2018-09-13T01:31:40.194Z,97524.00
2018-09-13T01:34:21.734Z,97525.00
2018-09-13T01:37:07.526Z,97523.00
2018-09-13T01:39:47.955Z,97535.00
2018-09-13T01:42:28.601Z,97530.00
2018-09-13T01:45:09.117Z,97523.00
2018-09-13T01:47:50.926Z,97517.00
2018-09-13T01:50:31.419Z,97521.00
2018-09-13T01:53:12.570Z,97529.00
2018-09-13T01:55:55.040Z,97521.00
2018-09-13T01:58:36.385Z,97509.00
2018-09-13T02:01:16.933Z,97511.00
2018-09-13T02:03:57.543Z,97513.00
2018-09-13T02:06:38.273Z,97518.00
2018-09-13T02:09:18.880Z,97526.00
2018-09-13T02:11:59.340Z,97523.00
2018-09-13T02:14:39.892Z,97513.00
2018-09-13T02:17:22.049Z,97512.00
2018-09-13T02:20:02.748Z,97514.00
2018-09-13T02:22:44.149Z,97515.00
2018-09-13T02:25:26.190Z,97515.00
2018-09-13T02:28:06.930Z,97512.00
2018-09-13T02:30:47.378Z,97519.00
2018-09-13T02:33:27.896Z,97525.00
2018-09-13T02:36:08.345Z,97517.00
2018-09-13T02:38:48.716Z,97515.00
2018-09-13T02:41:29.351Z,97515.00
2018-09-13T02:44:12.843Z,97505.00
2018-09-13T02:46:56.169Z,97497.00
2018-09-13T02:49:36.776Z,97514.00
2018-09-13T02:52:17.381Z,97516.00
2018-09-13T02:54:57.967Z,97512.00
2018-09-13T02:57:39.547Z,97504.00
2018-09-13T03:00:20.832Z,97512.00
2018-09-13T03:03:01.494Z,97517.00
2018-09-13T03:05:42.023Z,97510.00
2018-09-13T03:08:24.979Z,97504.00
2018-09-13T03:11:05.317Z,97510.00
2018-09-13T03:13:45.912Z,97492.00
2018-09-13T03:16:27.232Z,97492.00
2018-09-13T03:19:07.773Z,97492.00
2018-09-13T03:21:48.350Z,97494.00
2018-09-13T03:24:28.951Z,97503.00
2018-09-13T03:27:09.342Z,97516.00
2018-09-13T03:29:51.099Z,97494.00
2018-09-13T03:32:38.165Z,97502.00
2018-09-13T03:35:18.748Z,97499.00
2018-09-13T03:38:00.268Z,97485.00
2018-09-13T03:40:40.818Z,97491.00
2018-09-13T03:46:35.717Z,97496.00
2018-09-13T03:49:16.087Z,97495.00
2018-09-13T03:51:56.659Z,97493.00
2018-09-13T03:54:37.510Z,97487.00
2018-09-13T03:57:17.981Z,97484.00
2018-09-13T03:59:58.461Z,97477.00
2018-09-13T04:02:39.101Z,97476.00
2018-09-13T04:05:20.944Z,97474.00
2018-09-13T04:08:01.532Z,97472.00
2018-09-13T04:10:42.058Z,97473.00
2018-09-13T04:13:24.855Z,97472.00
2018-09-13T04:16:05.392Z,97470.00
2018-09-13T04:18:46.035Z,97476.00
2018-09-13T04:21:27.496Z,97477.00
2018-09-13T04:24:07.892Z,97481.00
2018-09-13T04:26:48.408Z,97486.00
2018-09-13T04:29:28.996Z,97473.00
2018-09-13T04:32:09.688Z,97472.00
2018-09-13T04:34:51.360Z,97480.00
2018-09-13T04:37:31.797Z,97472.00
2018-09-13T04:40:12.281Z,97476.00
2018-09-13T04:42:54.910Z,97481.00
2018-09-13T04:45:36.373Z,97483.00
2018-09-13T04:48:17.196Z,97485.00
2018-09-13T04:50:57.577Z,97491.00
2018-09-13T04:53:38.076Z,97498.00
2018-09-13T04:56:18.608Z,97490.00
2018-09-13T04:58:59.871Z,97495.00
2018-09-13T05:01:41.603Z,97498.00
2018-09-13T05:04:24.168Z,97499.00
2018-09-13T05:07:05.285Z,97510.00
2018-09-13T05:09:45.689Z,97505.00
2018-09-13T05:12:26.869Z,97518.00
2018-09-13T05:15:07.797Z,97527.00
2018-09-13T05:17:48.337Z,97523.00
2018-09-13T05:20:28.735Z,97512.00
2018-09-13T05:23:09.264Z,97514.00
2018-09-13T05:25:50.840Z,97515.00
2018-09-13T05:28:31.409Z,97513.00
2018-09-13T05:31:12.065Z,97515.00
2018-09-13T05:33:56.214Z,97523.00
2018-09-13T05:36:36.698Z,97523.00
2018-09-13T05:39:17.110Z,97519.00
2018-09-13T05:41:57.661Z,97529.00
2018-09-13T05:44:38.559Z,97541.00
2018-09-13T05:47:21.354Z,97542.00
2018-09-13T05:50:05.127Z,97540.00
2018-09-13T05:52:54.605Z,97534.00
2018-09-13T05:55:35.166Z,97523.00
2018-09-13T05:58:15.734Z,97523.00
2018-09-13T06:01:01.256Z,97525.00
2018-09-13T06:03:41.618Z,97529.00
2018-09-13T06:06:24.078Z,97526.00
2018-09-13T06:09:07.468Z,97522.00
2018-09-13T06:11:47.828Z,97524.00
2018-09-13T06:14:28.328Z,97512.00
2018-09-13T06:17:08.956Z,97526.00
2018-09-13T06:19:49.448Z,97518.00
2018-09-13T06:22:32.006Z,97519.00
2018-09-13T06:25:12.533Z,97522.00
2018-09-13T06:27:56.089Z,97513.00
2018-09-13T06:30:37.564Z,97520.00
2018-09-13T06:33:19.176Z,97523.00
2018-09-13T06:35:59.728Z,97527.00
2018-09-13T06:38:40.096Z,97517.00
2018-09-13T06:41:22.248Z,97522.00
2018-09-13T06:44:02.649Z,97515.00
2018-09-13T06:46:43.060Z,97522.00
2018-09-13T06:49:25.703Z,97527.00
2018-09-13T06:52:06.231Z,97527.00
2018-09-13T06:54:46.621Z,97537.00
2018-09-13T06:57:27.120Z,97533.00
2018-09-13T07:00:07.616Z,97534.00
2018-09-13T07:02:48.212Z,97527.00
2018-09-13T07:05:29.492Z,97527.00
2018-09-13T07:08:12.864Z,97533.00
2018-09-13T07:10:55.776Z,97531.00
2018-09-13T07:13:36.300Z,97526.00
2018-09-13T07:16:16.853Z,97526.00
2018-09-13T07:18:57.436Z,97532.00
2018-09-13T07:21:37.966Z,97518.00
2018-09-13T07:24:18.496Z,97523.00
2018-09-13T07:26:59.172Z,97529.00
2018-09-13T07:29:40.424Z,97534.00
2018-09-13T07:32:24.310Z,97526.00
2018-09-13T07:35:04.751Z,97533.00
2018-09-13T07:37:45.336Z,97535.00
2018-09-13T07:40:26.983Z,97524.00
2018-09-13T07:43:07.480Z,97525.00
2018-09-13T07:45:48.053Z,97533.00
2018-09-13T07:48:28.609Z,97533.00
2018-09-13T07:51:09.173Z,97534.00
2018-09-13T07:53:51.216Z,97536.00
2018-09-13T07:56:31.654Z,97541.00
2018-09-13T07:59:12.742Z,97535.00
2018-09-13T08:01:55.728Z,97534.00
2018-09-13T08:04:36.251Z,97532.00
2018-09-13T08:07:16.733Z,97536.00
2018-09-13T08:09:57.312Z,97547.00
2018-09-13T08:12:37.858Z,97541.00
2018-09-13T08:15:18.336Z,97554.00
2018-09-13T08:17:58.868Z,97539.00
2018-09-13T08:20:40.320Z,97545.00
2018-09-13T08:23:22.063Z,97546.00
2018-09-13T08:26:03.544Z,97548.00
2018-09-13T08:28:44.236Z,97551.00
2018-09-13T08:31:26.437Z,97564.00
2018-09-13T08:34:07.980Z,97547.00
2018-09-13T08:36:48.518Z,97558.00
2018-09-13T08:39:29.024Z,97560.00
2018-09-13T08:42:10.456Z,97563.00
2018-09-13T08:44:54.176Z,97561.00
2018-09-13T08:47:34.799Z,97567.00
2018-09-13T08:50:15.174Z,97555.00
2018-09-13T08:52:57.046Z,97556.00
2018-09-13T08:55:37.617Z,97556.00
2018-09-13T08:58:18.246Z,97560.00
2018-09-13T09:00:58.912Z,97561.00
2018-09-13T09:03:39.398Z,97554.00
2018-09-13T09:06:21.077Z,97554.00
2018-09-13T09:09:02.136Z,97547.00
2018-09-13T09:11:42.738Z,97548.00
2018-09-13T09:14:25.132Z,97549.00
2018-09-13T09:17:05.544Z,97555.00
2018-09-13T09:19:46.349Z,97551.00
2018-09-13T09:22:26.909Z,97548.00
2018-09-13T09:25:07.584Z,97539.00
2018-09-13T09:27:48.110Z,97552.00
2018-09-13T09:30:28.617Z,97555.00
2018-09-13T09:33:09.213Z,97561.00
2018-09-13T09:35:51.665Z,97554.00
2018-09-13T09:38:33.045Z,97546.00
2018-09-13T09:41:13.458Z,97549.00
2018-09-13T09:43:55.826Z,97546.00
2018-09-13T09:46:38.898Z,97547.00
2018-09-13T09:49:19.305Z,97545.00
2018-09-13T09:52:00.574Z,97550.00
2018-09-13T09:54:41.534Z,97538.00
2018-09-13T09:57:24.881Z,97538.00
2018-09-13T10:00:05.461Z,97534.00
2018-09-13T10:02:46.432Z,97541.00
2018-09-13T10:05:26.937Z,97537.00
2018-09-13T10:08:07.513Z,97543.00
2018-09-13T10:10:48.057Z,97533.00
2018-09-13T10:13:28.565Z,97530.00
2018-09-13T10:16:14.456Z,97532.00
2018-09-13T10:19:01.707Z,97532.00
2018-09-13T10:21:47.456Z,97528.00
2018-09-13T10:24:33.037Z,97535.00
2018-09-13T10:27:18.780Z,97538.00
2018-09-13T10:30:04.498Z,97535.00
2018-09-13T10:32:51.189Z,97535.00
2018-09-13T10:35:36.992Z,97547.00
2018-09-13T10:38:24.188Z,97533.00
2018-09-13T10:41:09.876Z,97532.00
2018-09-13T10:43:55.575Z,97533.00
2018-09-13T10:46:35.892Z,97531.00
2018-09-13T10:49:21.464Z,97523.00
2018-09-13T10:52:09.138Z,97529.00
2018-09-13T10:54:51.179Z,97528.00
2018-09-13T10:57:36.890Z,97521.00
2018-09-13T11:00:17.450Z,97521.00
2018-09-13T11:02:57.972Z,97522.00
2018-09-13T11:05:39.356Z,97519.00
2018-09-13T11:08:21.286Z,97522.00
2018-09-13T11:11:02.063Z,97520.00
2018-09-13T11:13:46.766Z,97517.00
2018-09-13T11:16:28.728Z,97502.00
2018-09-13T11:19:09.244Z,97500.00
2018-09-13T11:21:51.489Z,97503.00
2018-09-13T11:24:32.457Z,97500.00
2018-09-13T11:27:13.055Z,97499.00
2018-09-13T11:29:55.356Z,97492.00
2018-09-13T11:32:36.839Z,97489.00
2018-09-13T11:35:17.336Z,97491.00
2018-09-13T11:37:57.866Z,97494.00
2018-09-13T11:40:38.546Z,97492.00
2018-09-13T11:43:19.078Z,97481.00
2018-09-13T11:45:59.708Z,97478.00
2018-09-13T11:48:40.053Z,97474.00
2018-09-13T11:51:22.735Z,97470.00
2018-09-13T11:54:03.340Z,97473.00
2018-09-13T11:56:43.811Z,97475.00
2018-09-13T11:59:26.038Z,97464.00
2018-09-13T12:02:06.855Z,97467.00
2018-09-13T12:04:47.284Z,97470.00
2018-09-13T12:07:27.752Z,97467.00
2018-09-13T12:10:08.325Z,97467.00
2018-09-13T12:12:48.838Z,97461.00
2018-09-13T12:15:29.857Z,97464.00
2018-09-13T12:18:10.549Z,97467.00
2018-09-13T12:20:52.472Z,97464.00
2018-09-13T12:23:33.066Z,97469.00
2018-09-13T12:26:13.537Z,97461.00
2018-09-13T12:28:56.405Z,97468.00
2018-09-13T12:31:36.806Z,97447.00
2018-09-13T12:34:17.376Z,97454.00
2018-09-13T12:36:57.907Z,97454.00
2018-09-13T12:39:38.413Z,97441.00
2018-09-13T12:42:18.959Z,97448.00
2018-09-13T12:44:59.386Z,97443.00
2018-09-13T12:47:39.827Z,97449.00
2018-09-13T12:50:21.175Z,97437.00
2018-09-13T12:55:42.385Z,97443.00
2018-09-13T12:58:26.280Z,97434.00
2018-09-13T13:01:06.898Z,97434.00
2018-09-13T13:03:47.376Z,97429.00
2018-09-13T13:06:28.001Z,97430.00
2018-09-13T13:09:10.118Z,97422.00
2018-09-13T13:11:51.262Z,97419.00
2018-09-13T13:14:31.789Z,97422.00
2018-09-13T13:17:12.355Z,97432.00
2018-09-13T13:19:57.143Z,97426.00
2018-09-13T13:22:37.764Z,97422.00
2018-09-13T13:25:18.345Z,97424.00
2018-09-13T13:27:58.966Z,97422.00
2018-09-13T13:30:39.387Z,97424.00
2018-09-13T13:33:21.396Z,97414.00
2018-09-13T13:36:02.063Z,97412.00
2018-09-13T13:38:42.711Z,97415.00
2018-09-13T13:41:25.889Z,97415.00
2018-09-13T13:44:06.483Z,97414.00
2018-09-13T13:46:47.246Z,97409.00
2018-09-13T13:49:27.590Z,97404.00
2018-09-13T13:52:08.174Z,97408.00
2018-09-13T13:54:48.757Z,97406.00
2018-09-13T13:57:33.112Z,97406.00
2018-09-13T14:00:13.692Z,97396.00
2018-09-13T14:02:55.843Z,97395.00
2018-09-13T14:05:36.448Z,97387.00
2018-09-13T14:08:16.916Z,97386.00
2018-09-13T14:10:58.531Z,97385.00
2018-09-13T14:13:39.045Z,97384.00
2018-09-13T14:16:21.348Z,97388.00
2018-09-13T14:19:02.677Z,97380.00
2018-09-13T14:21:43.290Z,97375.00
2018-09-13T14:24:25.103Z,97382.00
2018-09-13T14:27:05.647Z,97384.00
2018-09-13T14:29:46.327Z,97384.00
2018-09-13T14:32:27.028Z,97382.00
2018-09-13T14:35:07.689Z,97378.00
2018-09-13T14:37:49.140Z,97370.00
2018-09-13T14:40:30.356Z,97374.00
2018-09-13T14:43:10.835Z,97375.00
2018-09-13T14:45:54.239Z,97376.00
2018-09-13T14:48:34.723Z,97376.00
2018-09-13T14:51:15.239Z,97369.00
2018-09-13T14:53:57.195Z,97362.00
2018-09-13T14:56:38.016Z,97364.00
2018-09-13T14:59:18.473Z,97357.00
2018-09-13T15:01:58.911Z,97356.00
2018-09-13T15:04:39.340Z,97354.00
2018-09-13T15:07:21.146Z,97354.00
2018-09-13T15:10:01.745Z,97354.00
2018-09-13T15:12:42.705Z,97350.00
2018-09-13T15:15:25.191Z,97352.00
2018-09-13T15:18:05.785Z,97355.00
2018-09-13T15:20:46.339Z,97347.00
2018-09-13T15:23:26.888Z,97348.00
2018-09-13T15:26:07.555Z,97333.00
2018-09-13T15:28:48.244Z,97342.00
2018-09-13T15:31:28.848Z,97342.00
2018-09-13T15:34:10.313Z,97340.00
2018-09-13T15:36:52.046Z,97352.00
2018-09-13T15:39:32.538Z,97350.00
2018-09-13T15:42:13.145Z,97340.00
2018-09-13T15:44:55.083Z,97337.00
2018-09-13T15:47:36.451Z,97330.00
2018-09-13T15:50:17.052Z,97329.00
2018-09-13T15:52:57.616Z,97330.00
2018-09-13T15:55:38.450Z,97324.00
2018-09-13T15:58:19.064Z,97328.00
2018-09-13T16:00:59.606Z,97327.00
2018-09-13T16:03:40.144Z,97328.00
2018-09-13T16:06:21.979Z,97322.00
2018-09-13T16:09:02.416Z,97326.00
2018-09-13T16:11:42.950Z,97323.00
2018-09-13T16:14:25.375Z,97327.00
2018-09-13T16:17:06.414Z,97322.00
2018-09-13T16:19:47.721Z,97330.00
2018-09-13T16:22:28.084Z,97321.00
2018-09-13T16:25:09.121Z,97319.00
2018-09-13T16:27:51.152Z,97314.00
2018-09-13T16:30:32.702Z,97318.00
2018-09-13T16:33:13.181Z,97317.00
2018-09-13T16:35:56.140Z,97318.00
2018-09-13T16:38:47.132Z,97308.00
2018-09-13T16:41:33.591Z,97311.00
2018-09-13T16:44:19.258Z,97309.00
2018-09-13T16:47:11.933Z,97305.00
2018-09-13T16:49:55.253Z,97304.00
2018-09-13T16:52:35.791Z,97306.00
2018-09-13T16:55:16.245Z,97306.00
2018-09-13T16:57:57.017Z,97300.00
2018-09-13T17:00:37.515Z,97297.00
2018-09-13T17:03:18.048Z,97305.00
2018-09-13T17:05:59.824Z,97305.00
2018-09-13T17:08:40.404Z,97303.00
2018-09-13T17:11:24.351Z,97301.00
2018-09-13T17:14:05.177Z,97306.00
2018-09-13T17:16:45.859Z,97305.00
2018-09-13T17:19:26.995Z,97303.00
2018-09-13T17:22:08.306Z,97307.00
2018-09-13T17:24:48.879Z,97309.00
2018-09-13T17:27:29.936Z,97302.00
2018-09-13T17:30:10.645Z,97299.00
2018-09-13T17:33:10.930Z,97302.00
2018-09-13T17:35:52.894Z,97318.00
2018-09-13T17:38:33.553Z,97316.00
2018-09-13T17:41:14.180Z,97312.00
2018-09-13T17:43:56.853Z,97320.00
2018-09-13T17:46:39.090Z,97318.00
2018-09-13T17:49:19.839Z,97309.00
2018-09-13T17:52:00.268Z,97313.00
2018-09-13T17:54:40.767Z,97313.00
2018-09-13T17:57:22.458Z,97317.00
2018-09-13T18:00:02.996Z,97316.00
2018-09-13T18:02:43.484Z,97314.00
2018-09-13T18:05:26.628Z,97314.00
2018-09-13T18:08:07.584Z,97312.00
2018-09-13T18:10:48.468Z,97320.00
2018-09-13T18:13:29.700Z,97325.00
2018-09-13T18:19:19.615Z,97327.00
2018-09-13T18:22:00.150Z,97323.00
2018-09-13T18:24:40.788Z,97322.00
2018-09-13T18:27:21.460Z,97330.00
2018-09-13T18:30:02.032Z,97328.00
2018-09-13T18:32:42.579Z,97335.00
2018-09-13T18:35:25.910Z,97333.00
2018-09-13T18:38:08.597Z,97323.00
2018-09-13T18:40:49.264Z,97323.00
2018-09-13T18:43:29.745Z,97330.00
2018-09-13T18:46:10.250Z,97327.00
2018-09-13T18:48:53.315Z,97332.00
2018-09-13T18:51:34.033Z,97342.00
2018-09-13T18:54:15.309Z,97333.00
2018-09-13T18:56:56.935Z,97336.00
2018-09-13T18:59:37.902Z,97337.00
2018-09-13T19:02:18.283Z,97344.00
2018-09-13T19:04:59.104Z,97339.00
2018-09-13T19:07:39.583Z,97346.00
2018-09-13T19:10:20.036Z,97343.00
2018-09-13T19:13:00.708Z,97346.00
2018-09-13T19:15:41.950Z,97355.00
2018-09-13T19:18:23.562Z,97350.00
2018-09-13T19:21:04.413Z,97354.00
2018-09-13T19:23:45.148Z,97353.00
2018-09-13T19:26:27.721Z,97359.00
2018-09-13T19:29:08.247Z,97364.00
2018-09-13T19:31:50.149Z,97367.00
2018-09-13T19:34:30.632Z,97365.00
2018-09-13T19:37:12.089Z,97372.00
2018-09-13T19:39:53.457Z,97374.00
2018-09-13T19:42:34.065Z,97379.00
2018-09-13T19:45:14.660Z,97377.00
2018-09-13T19:47:57.476Z,97379.00
2018-09-13T19:50:38.012Z,97381.00
2018-09-13T19:53:18.627Z,97381.00
2018-09-13T19:55:59.385Z,97381.00
2018-09-13T19:58:40.324Z,97383.00
2018-09-13T20:01:20.955Z,97371.00
2018-09-13T20:04:01.561Z,97379.00
2018-09-13T20:06:42.093Z,97388.00
2018-09-13T20:09:23.488Z,97386.00
2018-09-13T20:12:04.040Z,97388.00
2018-09-13T20:14:44.629Z,97386.00
2018-09-13T20:17:27.466Z,97373.00
2018-09-13T20:20:08.007Z,97367.00
2018-09-13T20:22:48.653Z,97378.00
2018-09-13T20:25:29.636Z,97381.00
2018-09-13T20:28:10.384Z,97386.00
2018-09-13T20:30:50.811Z,97390.00
2018-09-13T20:33:31.400Z,97389.00
2018-09-13T20:36:12.208Z,97383.00
2018-09-13T20:38:53.369Z,97383.00
2018-09-13T20:41:33.993Z,97379.00
2018-09-13T20:44:14.553Z,97378.00
2018-09-13T20:46:57.708Z,97375.00
2018-09-13T20:49:38.150Z,97365.00
2018-09-13T20:52:18.544Z,97359.00
2018-09-13T20:54:59.179Z,97365.00
2018-09-13T20:57:39.699Z,97370.00
2018-09-13T21:00:21.029Z,97360.00
2018-09-13T21:03:01.492Z,97361.00
2018-09-13T21:05:42.076Z,97358.00
2018-09-13T21:08:23.666Z,97356.00
2018-09-13T21:11:04.311Z,97360.00
2018-09-13T21:13:45.243Z,97361.00
2018-09-13T21:16:27.376Z,97359.00
2018-09-13T21:19:07.977Z,97364.00
2018-09-13T21:21:48.271Z,97364.00
2018-09-13T21:24:29.930Z,97365.00
2018-09-13T21:27:10.763Z,97369.00
2018-09-13T21:29:51.335Z,97367.00
2018-09-13T21:32:31.913Z,97373.00
2018-09-13T21:35:12.311Z,97371.00
2018-09-13T21:37:53.774Z,97368.00
2018-09-13T21:40:34.268Z,97360.00
2018-09-13T21:43:14.950Z,97362.00
2018-09-13T21:45:58.223Z,97360.00
2018-09-13T21:48:39.068Z,97360.00
2018-09-13T21:51:19.785Z,97354.00
2018-09-13T21:54:00.336Z,97360.00
2018-09-13T21:56:41.036Z,97359.00
2018-09-13T21:59:23.429Z,97359.00
2018-09-13T22:02:03.973Z,97354.00
2018-09-13T22:04:44.604Z,97346.00
2018-09-13T22:07:27.508Z,97355.00
2018-09-13T22:10:08.169Z,97346.00
2018-09-13T22:12:48.684Z,97345.00
2018-09-13T22:15:30.764Z,97344.00
2018-09-13T22:18:11.129Z,97339.00
2018-09-13T22:20:51.647Z,97335.00
2018-09-13T22:23:32.144Z,97322.00
2018-09-13T22:26:14.188Z,97326.00
2018-09-13T22:28:56.863Z,97327.00
2018-09-13T22:31:37.494Z,97335.00
2018-09-13T22:34:17.976Z,97328.00
2018-09-13T22:36:59.638Z,97332.00
2018-09-13T22:39:40.077Z,97334.00
2018-09-13T22:42:20.426Z,97333.00
2018-09-13T22:45:02.945Z,97332.00
2018-09-13T22:47:45.220Z,97335.00
2018-09-13T22:50:27.602Z,97335.00
2018-09-13T22:53:07.982Z,97331.00
2018-09-13T22:55:48.512Z,97333.00
2018-09-13T22:58:29.840Z,97328.00
2018-09-13T23:01:10.292Z,97322.00
2018-09-13T23:03:50.821Z,97326.00
2018-09-13T23:06:31.774Z,97326.00
2018-09-13T23:09:12.951Z,97333.00
2018-09-13T23:11:54.789Z,97327.00
2018-09-13T23:14:35.408Z,97325.00
2018-09-13T23:17:15.947Z,97339.00
2018-09-13T23:19:57.987Z,97333.00
2018-09-13T23:22:38.589Z,97336.00
2018-09-13T23:25:19.422Z,97333.00
2018-09-13T23:27:59.851Z,97335.00
2018-09-13T23:30:40.253Z,97340.00
2018-09-13T23:33:20.866Z,97342.00
2018-09-13T23:36:02.187Z,97341.00
2018-09-13T23:38:42.772Z,97350.00
2018-09-13T23:41:24.636Z,97351.00
2018-09-13T23:44:04.991Z,97337.00
2018-09-13T23:46:45.352Z,97341.00
2018-09-13T23:49:27.738Z,97342.00
2018-09-13T23:52:08.315Z,97340.00
2018-09-13T23:54:48.886Z,97344.00
2018-09-13T23:57:29.470Z,97345.00
